This is the latest recevied weather packets stored in our database for station/object SP2FH-13. If no packets are shown the sender has not sent any weather packets the latest 10 day(s).
| Time | Temp. | Humidity | Pressure | Rain* | Wind** | Luminosity | Snow |
|---|---|---|---|---|---|---|---|
| 1777989924 | 20° C | 65% | 996.6 hPa | - | - | 216 W/m² | - |
| 1777989322 | 20.56° C | 65% | 996.6 hPa | - | - | 196 W/m² | - |
| 1777988418 | 21.67° C | 62% | 996.6 hPa | - | - | 421 W/m² | - |
| 1777988117 | 22.22° C | 60% | 996.6 hPa | - | - | 249 W/m² | - |
| 1777987815 | 22.78° C | 54% | 996.8 hPa | - | - | 238 W/m² | - |
| 1777987514 | 22.78° C | 50% | 996.8 hPa | - | - | 285 W/m² | - |
| 1777987213 | 22.78° C | 51% | 996.8 hPa | - | - | 238 W/m² | - |
| 1777986912 | 23.33° C | 50% | 996.9 hPa | - | - | 225 W/m² | - |
| 1777986611 | 23.33° C | 50% | 996.9 hPa | - | - | 241 W/m² | - |
| 1777986310 | 23.89° C | 50% | 997 hPa | - | - | 236 W/m² | - |
| 1777985708 | 23.89° C | 50% | 997.1 hPa | - | - | 335 W/m² | - |
| 1777984805 | 22.78° C | 51% | 997.4 hPa | - | - | 323 W/m² | - |
| 1777984504 | 23.33° C | 49% | 997.4 hPa | - | - | 456 W/m² | - |
| 1777984203 | 23.33° C | 50% | 997.4 hPa | - | - | 429 W/m² | - |
| 1777983902 | 23.33° C | 50% | 997.5 hPa | - | - | 363 W/m² | - |
| 1777983601 | 22.78° C | 49% | 997.4 hPa | - | - | 359 W/m² | - |
| 1777982998 | 21.67° C | 52% | 997.4 hPa | - | - | 225 W/m² | - |
| 1777981794 | 22.78° C | 49% | 997.5 hPa | - | - | 268 W/m² | - |
| 1777981192 | 22.78° C | 49% | 997.6 hPa | - | - | 344 W/m² | - |
| 1777980891 | 22.78° C | 51% | 997.7 hPa | - | - | 399 W/m² | - |
| 1777980589 | 22.22° C | 49% | 997.7 hPa | - | - | 376 W/m² | - |
| 1777980289 | 22.78° C | 49% | 997.8 hPa | - | - | 432 W/m² | - |
| 1777979686 | 21.67° C | 53% | 997.7 hPa | - | - | 315 W/m² | - |
| 1777979385 | 21.67° C | 52% | 997.8 hPa | - | - | 278 W/m² | - |
| 1777978783 | 22.22° C | 53% | 998 hPa | - | - | 300 W/m² | - |
* Rain since midnight (hover to see other rain measurements)
** Current wind speed in m/s (hover to see current wind gust speed)